Terminal Aerodrome Forecast
Issued by NWS

Home | Current Version | Previous Version | Graphics & Text | Print | Product List | Glossary On
Versions: 1 2 3 4 5 6 7 8 9 10 11 12 13 14 15 16 17 18 19 20 21 22 23 24 25 26 27 28 29 30
000
FTUS43 KLOT 210352 AAB
TAFDPA
TAF AMD
KDPA 210352Z 2104/2124 03008KT P6SM SCT018 OVC060
     FM210700 05007KT 5SM -SHRA BR SCT006 OVC015
     FM211100 07009KT 5SM -SHRA BR FEW005 OVC007
     FM211600 10013KT 6SM -SHRA BR BKN008 OVC015
     FM212100 07012KT 6SM BR VCSH SCT010 OVC015=

USA.gov is the U.S. government's official web portal to all federal, state and local government web resources and services.